1924 NOT_NAMED (1924020S20157)


IBTrACS version v04r00. Visit IBTrACS website for data access.
Please direct all questions to the IBTrACS Q and A forum

Storm track - Intensity - Wind Radii - Intensity Data - Source Data - All data

Summary Information

Storm ID 1924020S20157
Start Jan 19 23Z
End Jan 24 23Z
ATCF IDs
Track status Best track data.

Storm track plot

Map of storm track

Intensity plots

No Intensity information for this storm


Radial wind information

No radial wind information for this storm


Position and Intensity Table

BASIN ISO_TIME_________ NATURE LAT LON
degrees north degrees east
SP 1924-01-19 23:00:00 NR -20.10 157.00
SP 1924-01-20 00:00:00 NR -20.16 157.01
SP 03:00:00 NR -20.34 157.04
SP 06:00:00 NR -20.52 157.07
SP 09:00:00 NR -20.69 157.09
SP 11:00:00 NR -20.80 157.10
SP 12:00:00 NR -20.85 157.10
SP 15:00:00 NR -21.01 157.10
SP 18:00:00 NR -21.16 157.10
SP 21:00:00 NR -21.30 157.10
SP 23:00:00 NR -21.40 157.10
SP 1924-01-21 00:00:00 NR -21.45 157.11
SP 03:00:00 NR -21.60 157.13
SP 06:00:00 NR -21.75 157.16
SP 09:00:00 NR -21.90 157.19
SP 11:00:00 NR -22.00 157.20
SP 12:00:00 NR -22.04 157.20
SP 15:00:00 NR -22.17 157.20
SP 18:00:00 NR -22.30 157.20
SP 21:00:00 NR -22.47 157.20
SP 23:00:00 NR -22.60 157.20
SP 1924-01-22 00:00:00 NR -22.68 157.20
SP 03:00:00 NR -22.96 157.23
SP 06:00:00 NR -23.27 157.25
SP 09:00:00 NR -23.59 157.28
SP 11:00:00 NR -23.80 157.30
SP 12:00:00 NR -23.90 157.31
SP 15:00:00 NR -24.18 157.32
SP 18:00:00 NR -24.46 157.34
SP 21:00:00 NR -24.72 157.37
SP 23:00:00 NR -24.90 157.40
SP 1924-01-23 00:00:00 NR -24.99 157.42
SP 03:00:00 NR -25.25 157.48
SP 06:00:00 NR -25.50 157.56
SP 09:00:00 NR -25.74 157.64
SP 11:00:00 NR -25.90 157.70
SP 12:00:00 NR -25.97 157.72
SP 15:00:00 NR -26.18 157.77
SP 18:00:00 NR -26.38 157.84
SP 21:00:00 NR -26.62 157.92
SP 23:00:00 NR -26.80 158.00
SP 1924-01-24 00:00:00 NR -26.91 158.04
SP 03:00:00 NR -27.26 158.20
SP 06:00:00 NR -27.64 158.39
SP 09:00:00 NR -28.04 158.63
SP 11:00:00 NR -28.30 158.80
SP 12:00:00 NR -28.43 158.89
SP 15:00:00 NR -28.79 159.20
SP 18:00:00 NR -29.14 159.52
SP 21:00:00 NR -29.48 159.87
SP 23:00:00 NR -29.70 160.10

Source Information

Agency Information
USA
TOKYO
CMA
HKO
NEWDELHI
REUNION
BOM
NADI
WELLINGTON
DS824
TD9636 cons_worldwide_trop_cyclone_18710101-19891231-006:Line=1516
TD9635
NEUMANN
MLC

All available IBTrACS Data

SEASON BASIN SUBBASIN ISO_TIME_________ NATURE LAT LON DIST2LAND LANDFALL IFLAG USA SSHS TD9636 LAT TD9636 LON TD9636 STAGE STORM SPEED STORM DIR
Year degrees north degrees east km km 1 degrees north degrees east kts degrees
1924 SP EA 1924-01-19 23:00:00 NR -20.10 157.00 648 639 __________O___ -1 -20.10 157.00 7 4 0
1924 SP EA 1924-01-20 00:00:00 NR -20.16 157.01 639 630 __________P___ -1 -20.16 157.01 7 4 172
1924 SP EA 03:00:00 NR -20.34 157.04 630 618 __________P___ -1 -20.34 157.04 7 4 171
1924 SP EA 06:00:00 NR -20.52 157.07 618 601 __________P___ -1 -20.52 157.07 7 4 173
1924 SP EA 09:00:00 NR -20.69 157.09 601 592 __________P___ -1 -20.69 157.09 7 3 175
1924 SP EA 11:00:00 NR -20.80 157.10 592 592 __________O___ -1 -20.80 157.10 7 3 0
1924 SP EA 12:00:00 NR -20.85 157.10 584 575 __________P___ -1 -20.85 157.10 7 3 173
1924 SP EA 15:00:00 NR -21.01 157.10 575 567 __________P___ -1 -21.01 157.10 7 3 184
1924 SP EA 18:00:00 NR -21.16 157.10 559 551 __________P___ -1 -21.16 157.10 7 3 0
1924 SP EA 21:00:00 NR -21.30 157.10 551 543 __________P___ -1 -21.30 157.10 7 3 176
1924 SP EA 23:00:00 NR -21.40 157.10 543 543 __________O___ -1 -21.40 157.10 7 3 175
1924 SP EA 1924-01-21 00:00:00 NR -21.45 157.11 543 527 __________P___ -1 -21.45 157.11 7 3 167
1924 SP EA 03:00:00 NR -21.60 157.13 527 520 __________P___ -1 -21.60 157.13 7 3 171
1924 SP EA 06:00:00 NR -21.75 157.16 520 513 __________P___ -1 -21.75 157.16 7 3 171
1924 SP EA 09:00:00 NR -21.90 157.19 513 506 __________P___ -1 -21.90 157.19 7 3 171
1924 SP EA 11:00:00 NR -22.00 157.20 506 506 __________O___ -1 -22.00 157.20 7 3 179
1924 SP EA 12:00:00 NR -22.04 157.20 506 492 __________P___ -1 -22.04 157.20 7 3 176
1924 SP EA 15:00:00 NR -22.17 157.20 492 485 __________P___ -1 -22.17 157.20 7 3 0
1924 SP EA 18:00:00 NR -22.30 157.20 485 472 __________P___ -1 -22.30 157.20 7 3 183
1924 SP EA 21:00:00 NR -22.47 157.20 472 466 __________P___ -1 -22.47 157.20 7 4 176
1924 SP EA 23:00:00 NR -22.60 157.20 466 460 __________O___ -1 -22.60 157.20 7 4 174
1924 SP EA 1924-01-22 00:00:00 NR -22.68 157.20 460 449 __________P___ -1 -22.68 157.20 7 5 178
1924 SP EA 03:00:00 NR -22.96 157.23 444 434 __________P___ -1 -22.96 157.23 7 6 177
1924 SP EA 06:00:00 NR -23.27 157.25 438 424 __________P___ -1 -23.27 157.25 7 6 175
1924 SP EA 09:00:00 NR -23.59 157.28 424 416 __________P___ -1 -23.59 157.28 7 6 175
1924 SP EA 11:00:00 NR -23.80 157.30 416 413 __________O___ -1 -23.80 157.30 7 6 178
1924 SP EA 12:00:00 NR -23.90 157.31 413 404 __________P___ -1 -23.90 157.31 7 6 0
1924 SP EA 15:00:00 NR -24.18 157.32 404 399 __________P___ -1 -24.18 157.32 7 6 177
1924 SP EA 18:00:00 NR -24.46 157.34 397 397 __________P___ -1 -24.46 157.34 7 5 175
1924 SP EA 21:00:00 NR -24.72 157.37 404 403 __________P___ -1 -24.72 157.37 7 5 172
1924 SP EA 23:00:00 NR -24.90 157.40 403 402 __________O___ -1 -24.90 157.40 7 5 172
1924 SP EA 1924-01-23 00:00:00 NR -24.99 157.42 402 402 __________P___ -1 -24.99 157.42 7 5 167
1924 SP EA 03:00:00 NR -25.25 157.48 413 413 __________P___ -1 -25.25 157.48 7 5 166
1924 SP EA 06:00:00 NR -25.50 157.56 425 425 __________P___ -1 -25.50 157.56 7 5 164
1924 SP EA 09:00:00 NR -25.74 157.64 428 428 __________P___ -1 -25.74 157.64 7 5 163
1924 SP EA 11:00:00 NR -25.90 157.70 442 442 __________O___ -1 -25.90 157.70 7 5 162
1924 SP EA 12:00:00 NR -25.97 157.72 445 445 __________P___ -1 -25.97 157.72 7 4 167
1924 SP EA 15:00:00 NR -26.18 157.77 460 460 __________P___ -1 -26.18 157.77 7 4 166
1924 SP EA 18:00:00 NR -26.38 157.84 460 460 __________P___ -1 -26.38 157.84 7 5 164
1924 SP EA 21:00:00 NR -26.62 157.92 460 455 __________P___ -1 -26.62 157.92 7 5 160
1924 SP EA 23:00:00 NR -26.80 158.00 460 456 __________O___ -1 -26.80 158.00 7 6 159
1924 SP EA 1924-01-24 00:00:00 NR -26.91 158.04 456 456 __________P___ -1 -26.91 158.04 7 7 159
1924 SP EA 03:00:00 NR -27.26 158.20 463 460 __________P___ -1 -27.26 158.20 7 8 157
1924 SP EA 06:00:00 NR -27.64 158.39 475 474 __________P___ -1 -27.64 158.39 7 9 154
1924 SP EA 09:00:00 NR -28.04 158.63 490 489 __________P___ -1 -28.04 158.63 7 9 151
1924 SP EA 11:00:00 NR -28.30 158.80 508 507 __________O___ -1 -28.30 158.80 7 9 148
1924 SP EA 12:00:00 NR -28.43 158.89 517 517 __________P___ -1 -28.43 158.89 7 9 145
1924 SP EA 15:00:00 NR -28.79 159.20 544 544 __________P___ -1 -28.79 159.20 7 9 142
1924 SP EA 18:00:00 NR -29.14 159.52 573 573 __________P___ -1 -29.14 159.52 7 9 140
1924 SP EA 21:00:00 NR -29.48 159.87 614 614 __________P___ -1 -29.48 159.87 7 9 138
1924 SP MM 23:00:00 NR -29.70 160.10 635 __________O___ -1 -29.70 160.10 7 9 138